Main page
METAR-TAF:

METAR-TAF

Airports :

Shawano Municipal Airport

Shawano, Wisconsin, United States

latitude: 44-47-14N, longitude: 088-33-36W, elevation: 813 ft

Current weather observation

The report was made 24 minutes ago, at 14:35 UTC
Wind 10 mph from the East/Northeast with gusts up to 16 mph
Temperature 32°F
Humidity 69%
Pressure 29.74 in. Hg
Visibility: 10 miles
Overcast at a height of 2100 ft

METAR: KEZS 231435Z AUTO 06009G14KT 10SM OVC021 00/M05 A2974 RMK AO2 T00001053

Time: 08:59 (14:59 UTC)


TAF: missing

Weather observations and forecasts of more than 4000 airports (METAR and TAF reports).

The available stations are represented by yellow and red dots on the map.

Hover mouse over dot to see the name of the station.

Then click to see weather observations and forecasts.

To change the map : click on the green buttons with a black cross to zoom in, on the green button with a dash to zoom out, or on the green arrows for adjacent maps.


METAR-TAF: